sensor_id;sensor_type;location;lat;lon;timestamp;temperature;humidity
8408;DHT22;4241;48.452;9.216;2023-02-17T00:02:19;10.90;99.90
8408;DHT22;4241;48.452;9.216;2023-02-17T00:04:46;10.80;99.70
8408;DHT22;4241;48.452;9.216;2023-02-17T00:07:13;10.90;99.70
8408;DHT22;4241;48.452;9.216;2023-02-17T00:09:41;11.00;99.70
8408;DHT22;4241;48.452;9.216;2023-02-17T00:12:08;10.90;99.60
8408;DHT22;4241;48.452;9.216;2023-02-17T00:14:35;11.00;99.50
8408;DHT22;4241;48.452;9.216;2023-02-17T00:17:02;10.90;99.40
8408;DHT22;4241;48.452;9.216;2023-02-17T00:19:28;11.00;99.20
8408;DHT22;4241;48.452;9.216;2023-02-17T00:21:57;11.00;99.50
8408;DHT22;4241;48.452;9.216;2023-02-17T00:24:26;10.90;99.40
8408;DHT22;4241;48.452;9.216;2023-02-17T00:26:55;11.10;99.40
8408;DHT22;4241;48.452;9.216;2023-02-17T00:29:21;10.80;99.40
8408;DHT22;4241;48.452;9.216;2023-02-17T00:31:50;10.90;99.60
8408;DHT22;4241;48.452;9.216;2023-02-17T00:34:17;10.30;99.30
8408;DHT22;4241;48.452;9.216;2023-02-17T00:36:44;10.90;99.60
8408;DHT22;4241;48.452;9.216;2023-02-17T00:39:13;11.00;99.80
8408;DHT22;4241;48.452;9.216;2023-02-17T00:41:40;11.10;99.70
8408;DHT22;4241;48.452;9.216;2023-02-17T00:44:14;10.90;99.30
8408;DHT22;4241;48.452;9.216;2023-02-17T00:46:42;10.90;99.40
8408;DHT22;4241;48.452;9.216;2023-02-17T00:49:14;11.10;99.20
8408;DHT22;4241;48.452;9.216;2023-02-17T00:51:41;11.00;99.10
8408;DHT22;4241;48.452;9.216;2023-02-17T00:54:08;11.00;99.10
8408;DHT22;4241;48.452;9.216;2023-02-17T00:56:35;11.00;98.90
8408;DHT22;4241;48.452;9.216;2023-02-17T00:59:02;11.00;99.00
8408;DHT22;4241;48.452;9.216;2023-02-17T01:01:30;11.00;99.00
8408;DHT22;4241;48.452;9.216;2023-02-17T01:03:57;11.10;98.70
8408;DHT22;4241;48.452;9.216;2023-02-17T01:06:25;11.00;98.60
8408;DHT22;4241;48.452;9.216;2023-02-17T01:08:53;11.00;98.60
8408;DHT22;4241;48.452;9.216;2023-02-17T01:11:22;10.90;98.60
8408;DHT22;4241;48.452;9.216;2023-02-17T01:13:49;11.00;98.60
8408;DHT22;4241;48.452;9.216;2023-02-17T01:16:18;10.90;98.40
8408;DHT22;4241;48.452;9.216;2023-02-17T01:18:47;10.90;98.80
8408;DHT22;4241;48.452;9.216;2023-02-17T01:21:15;11.00;98.90
8408;DHT22;4241;48.452;9.216;2023-02-17T01:23:42;11.00;99.10
8408;DHT22;4241;48.452;9.216;2023-02-17T01:26:13;10.90;99.10
8408;DHT22;4241;48.452;9.216;2023-02-17T01:28:39;10.90;98.90
8408;DHT22;4241;48.452;9.216;2023-02-17T01:31:07;10.90;99.10
8408;DHT22;4241;48.452;9.216;2023-02-17T01:33:34;10.90;99.20
8408;DHT22;4241;48.452;9.216;2023-02-17T01:36:04;11.00;99.50
8408;DHT22;4241;48.452;9.216;2023-02-17T01:38:31;10.90;99.30
8408;DHT22;4241;48.452;9.216;2023-02-17T01:40:58;11.00;99.50
8408;DHT22;4241;48.452;9.216;2023-02-17T01:43:25;11.00;99.50
8408;DHT22;4241;48.452;9.216;2023-02-17T01:45:52;10.90;99.90
8408;DHT22;4241;48.452;9.216;2023-02-17T01:48:22;10.90;99.80
8408;DHT22;4241;48.452;9.216;2023-02-17T01:50:52;10.90;99.80
8408;DHT22;4241;48.452;9.216;2023-02-17T01:53:27;11.00;99.80
8408;DHT22;4241;48.452;9.216;2023-02-17T01:55:56;10.90;99.90
8408;DHT22;4241;48.452;9.216;2023-02-17T01:58:24;10.90;99.90
8408;DHT22;4241;48.452;9.216;2023-02-17T02:00:52;10.90;99.90
8408;DHT22;4241;48.452;9.216;2023-02-17T02:03:20;10.90;99.90
8408;DHT22;4241;48.452;9.216;2023-02-17T02:05:47;10.90;99.90
8408;DHT22;4241;48.452;9.216;2023-02-17T02:08:15;11.00;99.90
8408;DHT22;4241;48.452;9.216;2023-02-17T02:10:43;11.00;99.90
8408;DHT22;4241;48.452;9.216;2023-02-17T02:13:10;10.90;99.90
8408;DHT22;4241;48.452;9.216;2023-02-17T02:15:41;11.00;99.90
8408;DHT22;4241;48.452;9.216;2023-02-17T02:18:20;10.90;99.90
8408;DHT22;4241;48.452;9.216;2023-02-17T02:21:31;11.10;99.90
8408;DHT22;4241;48.452;9.216;2023-02-17T02:24:24;10.90;99.90
8408;DHT22;4241;48.452;9.216;2023-02-17T02:27:28;10.80;99.90
8408;DHT22;4241;48.452;9.216;2023-02-17T02:30:14;10.90;99.90
8408;DHT22;4241;48.452;9.216;2023-02-17T02:32:50;10.90;99.90
8408;DHT22;4241;48.452;9.216;2023-02-17T02:35:24;10.90;99.90
8408;DHT22;4241;48.452;9.216;2023-02-17T02:37:57;10.90;99.90
8408;DHT22;4241;48.452;9.216;2023-02-17T02:40:28;10.80;99.90
8408;DHT22;4241;48.452;9.216;2023-02-17T02:42:57;10.80;99.90
8408;DHT22;4241;48.452;9.216;2023-02-17T02:45:25;10.80;99.90
8408;DHT22;4241;48.452;9.216;2023-02-17T02:47:55;10.90;99.90
8408;DHT22;4241;48.452;9.216;2023-02-17T02:50:27;10.90;99.90
8408;DHT22;4241;48.452;9.216;2023-02-17T02:53:22;10.90;99.90
8408;DHT22;4241;48.452;9.216;2023-02-17T02:55:57;10.90;99.90
8408;DHT22;4241;48.452;9.216;2023-02-17T02:58:32;11.00;99.90
8408;DHT22;4241;48.452;9.216;2023-02-17T03:01:04;10.80;99.90
8408;DHT22;4241;48.452;9.216;2023-02-17T03:03:41;10.90;99.90
8408;DHT22;4241;48.452;9.216;2023-02-17T03:06:14;10.80;99.90
8408;DHT22;4241;48.452;9.216;2023-02-17T03:08:47;10.80;99.90
8408;DHT22;4241;48.452;9.216;2023-02-17T03:11:16;10.90;99.90
8408;DHT22;4241;48.452;9.216;2023-02-17T03:13:59;10.80;99.90
8408;DHT22;4241;48.452;9.216;2023-02-17T03:16:29;11.00;99.90
8408;DHT22;4241;48.452;9.216;2023-02-17T03:18:58;10.70;99.90
8408;DHT22;4241;48.452;9.216;2023-02-17T03:21:27;10.80;99.90
8408;DHT22;4241;48.452;9.216;2023-02-17T03:23:54;10.90;99.90
8408;DHT22;4241;48.452;9.216;2023-02-17T03:26:21;10.70;99.90
8408;DHT22;4241;48.452;9.216;2023-02-17T03:28:48;10.70;99.90
8408;DHT22;4241;48.452;9.216;2023-02-17T03:31:15;10.80;99.90
8408;DHT22;4241;48.452;9.216;2023-02-17T03:33:42;10.70;99.90
8408;DHT22;4241;48.452;9.216;2023-02-17T03:36:10;10.80;99.90
8408;DHT22;4241;48.452;9.216;2023-02-17T03:38:37;10.90;99.90
8408;DHT22;4241;48.452;9.216;2023-02-17T03:41:04;10.60;99.90
8408;DHT22;4241;48.452;9.216;2023-02-17T03:43:30;10.80;99.90
8408;DHT22;4241;48.452;9.216;2023-02-17T03:45:57;10.60;99.90
8408;DHT22;4241;48.452;9.216;2023-02-17T03:48:24;10.60;99.90
8408;DHT22;4241;48.452;9.216;2023-02-17T03:50:51;10.50;99.90
8408;DHT22;4241;48.452;9.216;2023-02-17T03:53:19;10.60;99.90
8408;DHT22;4241;48.452;9.216;2023-02-17T03:55:46;10.40;99.90
8408;DHT22;4241;48.452;9.216;2023-02-17T03:58:12;10.60;99.90
8408;DHT22;4241;48.452;9.216;2023-02-17T04:00:39;10.60;99.90
8408;DHT22;4241;48.452;9.216;2023-02-17T04:03:06;10.60;99.90
8408;DHT22;4241;48.452;9.216;2023-02-17T04:05:33;10.70;99.90
8408;DHT22;4241;48.452;9.216;2023-02-17T04:08:00;10.60;99.90
8408;DHT22;4241;48.452;9.216;2023-02-17T04:10:28;10.50;99.90
8408;DHT22;4241;48.452;9.216;2023-02-17T04:12:54;10.50;99.90
8408;DHT22;4241;48.452;9.216;2023-02-17T04:15:21;10.80;99.90
8408;DHT22;4241;48.452;9.216;2023-02-17T04:17:48;10.60;99.90
8408;DHT22;4241;48.452;9.216;2023-02-17T04:20:15;10.70;99.90
8408;DHT22;4241;48.452;9.216;2023-02-17T04:22:41;10.60;99.90
8408;DHT22;4241;48.452;9.216;2023-02-17T04:25:10;10.50;99.90
8408;DHT22;4241;48.452;9.216;2023-02-17T04:27:38;10.40;99.90
8408;DHT22;4241;48.452;9.216;2023-02-17T04:30:06;10.40;99.90
8408;DHT22;4241;48.452;9.216;2023-02-17T04:32:33;10.50;99.90
8408;DHT22;4241;48.452;9.216;2023-02-17T04:35:00;10.40;99.90
8408;DHT22;4241;48.452;9.216;2023-02-17T04:37:27;10.60;99.90
8408;DHT22;4241;48.452;9.216;2023-02-17T04:39:53;10.50;99.90
8408;DHT22;4241;48.452;9.216;2023-02-17T04:42:20;10.40;99.90
8408;DHT22;4241;48.452;9.216;2023-02-17T04:44:48;10.50;99.90
8408;DHT22;4241;48.452;9.216;2023-02-17T04:47:15;10.40;99.90
8408;DHT22;4241;48.452;9.216;2023-02-17T04:49:42;10.60;99.90
8408;DHT22;4241;48.452;9.216;2023-02-17T04:52:09;10.40;99.90
8408;DHT22;4241;48.452;9.216;2023-02-17T04:54:35;10.40;99.90
8408;DHT22;4241;48.452;9.216;2023-02-17T04:57:02;10.40;99.90
8408;DHT22;4241;48.452;9.216;2023-02-17T04:59:29;10.40;99.90
8408;DHT22;4241;48.452;9.216;2023-02-17T05:01:57;10.50;99.90
8408;DHT22;4241;48.452;9.216;2023-02-17T05:04:24;10.20;99.90
8408;DHT22;4241;48.452;9.216;2023-02-17T05:06:51;10.20;99.90
8408;DHT22;4241;48.452;9.216;2023-02-17T05:09:18;10.20;99.90
8408;DHT22;4241;48.452;9.216;2023-02-17T05:11:45;10.10;99.90
8408;DHT22;4241;48.452;9.216;2023-02-17T05:14:12;10.20;99.90
8408;DHT22;4241;48.452;9.216;2023-02-17T05:16:39;10.10;99.90
8408;DHT22;4241;48.452;9.216;2023-02-17T05:19:07;10.10;99.90
8408;DHT22;4241;48.452;9.216;2023-02-17T05:21:34;10.00;99.90
8408;DHT22;4241;48.452;9.216;2023-02-17T05:24:01;10.00;99.90
8408;DHT22;4241;48.452;9.216;2023-02-17T05:26:28;10.10;99.90
8408;DHT22;4241;48.452;9.216;2023-02-17T05:28:55;10.00;99.90
8408;DHT22;4241;48.452;9.216;2023-02-17T05:31:22;10.00;99.90
8408;DHT22;4241;48.452;9.216;2023-02-17T05:33:48;10.00;99.90
8408;DHT22;4241;48.452;9.216;2023-02-17T05:36:17;10.10;99.90
8408;DHT22;4241;48.452;9.216;2023-02-17T05:38:43;10.00;99.90
8408;DHT22;4241;48.452;9.216;2023-02-17T05:41:13;10.00;99.90
8408;DHT22;4241;48.452;9.216;2023-02-17T05:43:40;10.10;99.90
8408;DHT22;4241;48.452;9.216;2023-02-17T05:46:07;10.00;99.90
8408;DHT22;4241;48.452;9.216;2023-02-17T05:48:34;10.00;99.90
8408;DHT22;4241;48.452;9.216;2023-02-17T05:51:00;9.90;99.90
8408;DHT22;4241;48.452;9.216;2023-02-17T05:53:29;9.80;99.90
8408;DHT22;4241;48.452;9.216;2023-02-17T05:55:55;10.10;99.90
8408;DHT22;4241;48.452;9.216;2023-02-17T05:58:22;9.90;99.90
8408;DHT22;4241;48.452;9.216;2023-02-17T06:00:49;9.90;99.90
8408;DHT22;4241;48.452;9.216;2023-02-17T06:03:16;9.80;99.90
8408;DHT22;4241;48.452;9.216;2023-02-17T06:05:43;9.90;99.90
8408;DHT22;4241;48.452;9.216;2023-02-17T06:08:11;11.40;99.90
8408;DHT22;4241;48.452;9.216;2023-02-17T06:10:40;10.10;99.90
8408;DHT22;4241;48.452;9.216;2023-02-17T06:13:07;9.90;99.90
8408;DHT22;4241;48.452;9.216;2023-02-17T06:15:34;10.00;99.90
8408;DHT22;4241;48.452;9.216;2023-02-17T06:18:01;9.90;99.90
8408;DHT22;4241;48.452;9.216;2023-02-17T06:20:28;10.00;99.90
8408;DHT22;4241;48.452;9.216;2023-02-17T06:22:54;10.00;99.90
8408;DHT22;4241;48.452;9.216;2023-02-17T06:25:21;10.10;99.90
8408;DHT22;4241;48.452;9.216;2023-02-17T06:27:49;10.10;99.90
8408;DHT22;4241;48.452;9.216;2023-02-17T06:30:16;10.10;99.90
8408;DHT22;4241;48.452;9.216;2023-02-17T06:32:44;10.20;99.90
8408;DHT22;4241;48.452;9.216;2023-02-17T06:35:11;10.20;99.90
8408;DHT22;4241;48.452;9.216;2023-02-17T06:37:38;10.10;99.90
8408;DHT22;4241;48.452;9.216;2023-02-17T06:40:06;10.20;99.90
8408;DHT22;4241;48.452;9.216;2023-02-17T06:42:33;10.20;99.90
8408;DHT22;4241;48.452;9.216;2023-02-17T06:45:01;10.10;99.90
8408;DHT22;4241;48.452;9.216;2023-02-17T06:47:30;10.50;99.90
8408;DHT22;4241;48.452;9.216;2023-02-17T06:49:57;10.30;99.90
8408;DHT22;4241;48.452;9.216;2023-02-17T06:52:24;10.20;99.90
8408;DHT22;4241;48.452;9.216;2023-02-17T06:54:51;10.20;99.90
8408;DHT22;4241;48.452;9.216;2023-02-17T06:57:18;10.30;99.90
8408;DHT22;4241;48.452;9.216;2023-02-17T06:59:45;10.30;99.90
8408;DHT22;4241;48.452;9.216;2023-02-17T07:02:13;10.30;99.90
8408;DHT22;4241;48.452;9.216;2023-02-17T07:04:41;10.40;99.90
8408;DHT22;4241;48.452;9.216;2023-02-17T07:07:09;10.30;99.90
8408;DHT22;4241;48.452;9.216;2023-02-17T07:09:36;10.50;99.90
8408;DHT22;4241;48.452;9.216;2023-02-17T07:12:04;10.40;99.90
8408;DHT22;4241;48.452;9.216;2023-02-17T07:14:31;10.50;99.90
8408;DHT22;4241;48.452;9.216;2023-02-17T07:16:59;10.50;99.90
8408;DHT22;4241;48.452;9.216;2023-02-17T07:19:27;10.50;99.90
8408;DHT22;4241;48.452;9.216;2023-02-17T07:21:54;10.50;99.90
8408;DHT22;4241;48.452;9.216;2023-02-17T07:24:21;10.50;99.90
8408;DHT22;4241;48.452;9.216;2023-02-17T07:26:48;10.50;99.90
8408;DHT22;4241;48.452;9.216;2023-02-17T07:29:15;10.50;99.90
8408;DHT22;4241;48.452;9.216;2023-02-17T07:31:41;10.60;99.90
8408;DHT22;4241;48.452;9.216;2023-02-17T07:34:08;10.50;99.90
8408;DHT22;4241;48.452;9.216;2023-02-17T07:36:36;10.60;99.90
8408;DHT22;4241;48.452;9.216;2023-02-17T07:39:03;10.70;99.90
8408;DHT22;4241;48.452;9.216;2023-02-17T07:41:31;10.60;99.90
8408;DHT22;4241;48.452;9.216;2023-02-17T07:43:59;10.60;99.90
8408;DHT22;4241;48.452;9.216;2023-02-17T07:46:26;10.70;99.90
8408;DHT22;4241;48.452;9.216;2023-02-17T07:48:53;10.60;99.90
8408;DHT22;4241;48.452;9.216;2023-02-17T07:51:22;10.60;99.90
8408;DHT22;4241;48.452;9.216;2023-02-17T07:53:51;10.50;99.90
8408;DHT22;4241;48.452;9.216;2023-02-17T07:56:20;10.60;99.90
8408;DHT22;4241;48.452;9.216;2023-02-17T07:58:47;10.80;99.90
8408;DHT22;4241;48.452;9.216;2023-02-17T08:01:18;10.90;99.90
8408;DHT22;4241;48.452;9.216;2023-02-17T08:03:45;10.60;99.90
8408;DHT22;4241;48.452;9.216;2023-02-17T08:06:15;10.70;99.90
8408;DHT22;4241;48.452;9.216;2023-02-17T08:08:42;10.60;99.90
8408;DHT22;4241;48.452;9.216;2023-02-17T08:11:28;10.60;99.90
8408;DHT22;4241;48.452;9.216;2023-02-17T08:14:09;10.70;99.90
8408;DHT22;4241;48.452;9.216;2023-02-17T08:16:35;10.50;99.90
8408;DHT22;4241;48.452;9.216;2023-02-17T08:19:02;10.70;99.90
8408;DHT22;4241;48.452;9.216;2023-02-17T08:21:29;10.70;99.90
8408;DHT22;4241;48.452;9.216;2023-02-17T08:23:56;10.60;99.90
8408;DHT22;4241;48.452;9.216;2023-02-17T08:26:23;10.90;99.90
8408;DHT22;4241;48.452;9.216;2023-02-17T08:28:51;11.00;99.90
8408;DHT22;4241;48.452;9.216;2023-02-17T08:31:20;10.60;99.90
8408;DHT22;4241;48.452;9.216;2023-02-17T08:33:48;10.70;99.90
8408;DHT22;4241;48.452;9.216;2023-02-17T08:36:15;10.70;99.90
8408;DHT22;4241;48.452;9.216;2023-02-17T08:38:42;10.80;99.90
8408;DHT22;4241;48.452;9.216;2023-02-17T08:41:13;11.30;99.90
8408;DHT22;4241;48.452;9.216;2023-02-17T08:43:41;10.90;99.90
8408;DHT22;4241;48.452;9.216;2023-02-17T08:46:11;11.10;99.90
8408;DHT22;4241;48.452;9.216;2023-02-17T08:48:38;11.10;99.90
8408;DHT22;4241;48.452;9.216;2023-02-17T08:51:06;11.30;99.90
8408;DHT22;4241;48.452;9.216;2023-02-17T08:53:33;11.20;99.90
8408;DHT22;4241;48.452;9.216;2023-02-17T08:56:00;11.20;99.90
8408;DHT22;4241;48.452;9.216;2023-02-17T08:58:27;11.20;99.90
8408;DHT22;4241;48.452;9.216;2023-02-17T09:00:54;11.30;99.90
8408;DHT22;4241;48.452;9.216;2023-02-17T09:03:22;11.30;99.90
8408;DHT22;4241;48.452;9.216;2023-02-17T09:05:52;11.40;99.90
8408;DHT22;4241;48.452;9.216;2023-02-17T09:08:19;11.50;99.90
8408;DHT22;4241;48.452;9.216;2023-02-17T09:10:46;11.40;99.90
8408;DHT22;4241;48.452;9.216;2023-02-17T09:13:13;11.40;99.90
8408;DHT22;4241;48.452;9.216;2023-02-17T09:15:40;11.40;99.90
8408;DHT22;4241;48.452;9.216;2023-02-17T09:18:07;11.50;99.90
8408;DHT22;4241;48.452;9.216;2023-02-17T09:20:36;11.60;99.90
8408;DHT22;4241;48.452;9.216;2023-02-17T09:23:04;11.80;99.90
8408;DHT22;4241;48.452;9.216;2023-02-17T09:25:31;11.70;99.90
8408;DHT22;4241;48.452;9.216;2023-02-17T09:27:58;11.80;99.90
8408;DHT22;4241;48.452;9.216;2023-02-17T09:30:25;11.90;99.90
8408;DHT22;4241;48.452;9.216;2023-02-17T09:32:51;12.00;99.90
8408;DHT22;4241;48.452;9.216;2023-02-17T09:35:18;12.00;99.90
8408;DHT22;4241;48.452;9.216;2023-02-17T09:37:47;12.00;99.90
8408;DHT22;4241;48.452;9.216;2023-02-17T09:40:17;11.90;99.90
8408;DHT22;4241;48.452;9.216;2023-02-17T09:42:45;12.00;99.90
8408;DHT22;4241;48.452;9.216;2023-02-17T09:45:18;12.10;99.90
8408;DHT22;4241;48.452;9.216;2023-02-17T09:47:48;12.00;99.90
8408;DHT22;4241;48.452;9.216;2023-02-17T09:50:18;12.00;99.90
8408;DHT22;4241;48.452;9.216;2023-02-17T09:52:52;12.10;99.90
8408;DHT22;4241;48.452;9.216;2023-02-17T09:55:24;12.00;99.90
8408;DHT22;4241;48.452;9.216;2023-02-17T09:57:55;12.00;99.90
8408;DHT22;4241;48.452;9.216;2023-02-17T10:00:26;11.90;99.90
8408;DHT22;4241;48.452;9.216;2023-02-17T10:02:58;11.90;99.90
8408;DHT22;4241;48.452;9.216;2023-02-17T10:05:28;11.90;99.90
8408;DHT22;4241;48.452;9.216;2023-02-17T10:08:03;12.10;99.90
8408;DHT22;4241;48.452;9.216;2023-02-17T10:10:38;11.90;99.90
8408;DHT22;4241;48.452;9.216;2023-02-17T10:13:06;11.80;99.90
8408;DHT22;4241;48.452;9.216;2023-02-17T10:15:38;11.90;99.90
8408;DHT22;4241;48.452;9.216;2023-02-17T10:18:12;12.00;99.90
8408;DHT22;4241;48.452;9.216;2023-02-17T10:20:45;12.00;99.90
8408;DHT22;4241;48.452;9.216;2023-02-17T10:23:18;11.90;99.90
8408;DHT22;4241;48.452;9.216;2023-02-17T10:26:06;12.10;99.90
8408;DHT22;4241;48.452;9.216;2023-02-17T10:28:55;12.10;99.90
8408;DHT22;4241;48.452;9.216;2023-02-17T10:31:31;12.00;99.90
8408;DHT22;4241;48.452;9.216;2023-02-17T10:34:03;12.10;99.90
8408;DHT22;4241;48.452;9.216;2023-02-17T10:36:38;12.20;99.90
8408;DHT22;4241;48.452;9.216;2023-02-17T10:39:13;12.30;99.90
8408;DHT22;4241;48.452;9.216;2023-02-17T10:41:50;12.40;99.90
8408;DHT22;4241;48.452;9.216;2023-02-17T10:44:20;12.60;99.90
8408;DHT22;4241;48.452;9.216;2023-02-17T10:46:49;12.70;99.90
8408;DHT22;4241;48.452;9.216;2023-02-17T10:49:23;12.70;99.90
8408;DHT22;4241;48.452;9.216;2023-02-17T10:51:51;12.80;99.90
8408;DHT22;4241;48.452;9.216;2023-02-17T10:54:27;12.80;99.90
8408;DHT22;4241;48.452;9.216;2023-02-17T10:56:56;12.90;99.90
8408;DHT22;4241;48.452;9.216;2023-02-17T10:59:27;13.00;99.90
8408;DHT22;4241;48.452;9.216;2023-02-17T11:01:57;13.10;99.90
8408;DHT22;4241;48.452;9.216;2023-02-17T11:04:40;13.50;99.90
8408;DHT22;4241;48.452;9.216;2023-02-17T11:07:10;13.50;99.90
8408;DHT22;4241;48.452;9.216;2023-02-17T11:09:45;13.80;99.90
8408;DHT22;4241;48.452;9.216;2023-02-17T11:12:14;13.60;99.90
8408;DHT22;4241;48.452;9.216;2023-02-17T11:14:45;13.40;99.90
8408;DHT22;4241;48.452;9.216;2023-02-17T11:17:15;13.30;99.90
8408;DHT22;4241;48.452;9.216;2023-02-17T11:19:54;13.20;99.90
8408;DHT22;4241;48.452;9.216;2023-02-17T11:22:34;13.20;99.90
8408;DHT22;4241;48.452;9.216;2023-02-17T11:25:06;13.20;99.90
8408;DHT22;4241;48.452;9.216;2023-02-17T11:27:33;13.10;99.90
8408;DHT22;4241;48.452;9.216;2023-02-17T11:30:13;13.10;99.90
8408;DHT22;4241;48.452;9.216;2023-02-17T11:32:41;13.30;99.90
8408;DHT22;4241;48.452;9.216;2023-02-17T11:35:20;13.50;99.90
8408;DHT22;4241;48.452;9.216;2023-02-17T11:37:47;14.00;99.90
8408;DHT22;4241;48.452;9.216;2023-02-17T11:40:23;14.10;99.90
8408;DHT22;4241;48.452;9.216;2023-02-17T11:42:55;13.90;99.90
8408;DHT22;4241;48.452;9.216;2023-02-17T11:45:23;13.70;99.90
8408;DHT22;4241;48.452;9.216;2023-02-17T11:48:01;13.70;99.90
8408;DHT22;4241;48.452;9.216;2023-02-17T11:50:31;13.80;99.90
8408;DHT22;4241;48.452;9.216;2023-02-17T11:53:22;13.80;99.90
8408;DHT22;4241;48.452;9.216;2023-02-17T11:56:03;13.60;99.90
8408;DHT22;4241;48.452;9.216;2023-02-17T11:58:51;14.60;99.90
8408;DHT22;4241;48.452;9.216;2023-02-17T12:01:33;13.70;99.90
8408;DHT22;4241;48.452;9.216;2023-02-17T12:04:16;13.60;99.90
8408;DHT22;4241;48.452;9.216;2023-02-17T12:09:47;13.60;99.90
8408;DHT22;4241;48.452;9.216;2023-02-17T12:12:22;13.60;99.90
8408;DHT22;4241;48.452;9.216;2023-02-17T12:15:06;13.50;99.90
8408;DHT22;4241;48.452;9.216;2023-02-17T12:17:40;13.40;99.90
8408;DHT22;4241;48.452;9.216;2023-02-17T12:20:25;13.50;99.90
8408;DHT22;4241;48.452;9.216;2023-02-17T12:23:03;13.40;99.90
8408;DHT22;4241;48.452;9.216;2023-02-17T12:25:32;13.40;99.90
8408;DHT22;4241;48.452;9.216;2023-02-17T12:28:11;13.30;99.90
8408;DHT22;4241;48.452;9.216;2023-02-17T12:30:50;13.20;99.90
8408;DHT22;4241;48.452;9.216;2023-02-17T12:33:32;13.20;99.90
8408;DHT22;4241;48.452;9.216;2023-02-17T12:36:02;13.30;99.90
8408;DHT22;4241;48.452;9.216;2023-02-17T12:38:32;13.30;99.90
8408;DHT22;4241;48.452;9.216;2023-02-17T12:41:04;13.30;99.90
8408;DHT22;4241;48.452;9.216;2023-02-17T12:43:38;13.20;99.90
8408;DHT22;4241;48.452;9.216;2023-02-17T12:46:11;13.20;99.90
8408;DHT22;4241;48.452;9.216;2023-02-17T12:48:43;13.30;99.90
8408;DHT22;4241;48.452;9.216;2023-02-17T12:51:16;13.20;99.90
8408;DHT22;4241;48.452;9.216;2023-02-17T12:53:47;13.10;99.90
8408;DHT22;4241;48.452;9.216;2023-02-17T12:56:38;13.10;99.90
8408;DHT22;4241;48.452;9.216;2023-02-17T12:59:14;13.00;99.90
8408;DHT22;4241;48.452;9.216;2023-02-17T13:01:49;13.00;99.90
8408;DHT22;4241;48.452;9.216;2023-02-17T13:04:18;13.00;99.90
8408;DHT22;4241;48.452;9.216;2023-02-17T13:06:49;13.00;99.90
8408;DHT22;4241;48.452;9.216;2023-02-17T13:09:24;13.00;99.90
8408;DHT22;4241;48.452;9.216;2023-02-17T13:11:52;13.10;99.90
8408;DHT22;4241;48.452;9.216;2023-02-17T13:14:27;13.10;99.90
8408;DHT22;4241;48.452;9.216;2023-02-17T13:16:54;13.00;99.90
8408;DHT22;4241;48.452;9.216;2023-02-17T13:19:28;13.10;99.90
8408;DHT22;4241;48.452;9.216;2023-02-17T13:21:57;13.10;99.90
8408;DHT22;4241;48.452;9.216;2023-02-17T13:24:32;13.20;99.90
8408;DHT22;4241;48.452;9.216;2023-02-17T13:27:09;13.20;99.90
8408;DHT22;4241;48.452;9.216;2023-02-17T13:29:38;13.20;99.90
8408;DHT22;4241;48.452;9.216;2023-02-17T13:32:09;13.20;99.90
8408;DHT22;4241;48.452;9.216;2023-02-17T13:34:39;13.30;99.90
8408;DHT22;4241;48.452;9.216;2023-02-17T13:37:22;13.40;99.90
8408;DHT22;4241;48.452;9.216;2023-02-17T13:39:49;13.60;99.90
8408;DHT22;4241;48.452;9.216;2023-02-17T13:42:32;13.50;99.90
8408;DHT22;4241;48.452;9.216;2023-02-17T13:45:09;13.40;99.90
8408;DHT22;4241;48.452;9.216;2023-02-17T13:47:37;13.50;99.90
8408;DHT22;4241;48.452;9.216;2023-02-17T13:50:23;13.60;99.90
8408;DHT22;4241;48.452;9.216;2023-02-17T13:52:52;13.40;99.90
8408;DHT22;4241;48.452;9.216;2023-02-17T13:55:20;13.40;99.90
8408;DHT22;4241;48.452;9.216;2023-02-17T13:57:51;13.30;99.90
8408;DHT22;4241;48.452;9.216;2023-02-17T14:00:22;13.40;99.90
8408;DHT22;4241;48.452;9.216;2023-02-17T14:02:51;13.40;99.90
8408;DHT22;4241;48.452;9.216;2023-02-17T14:05:20;13.50;99.90
8408;DHT22;4241;48.452;9.216;2023-02-17T14:07:49;13.50;99.90
8408;DHT22;4241;48.452;9.216;2023-02-17T14:10:22;13.60;99.90
8408;DHT22;4241;48.452;9.216;2023-02-17T14:12:50;13.50;99.90
8408;DHT22;4241;48.452;9.216;2023-02-17T14:15:21;13.50;99.90
8408;DHT22;4241;48.452;9.216;2023-02-17T14:17:48;13.70;99.90
8408;DHT22;4241;48.452;9.216;2023-02-17T14:20:27;13.70;99.90
8408;DHT22;4241;48.452;9.216;2023-02-17T14:23:02;13.80;99.90
8408;DHT22;4241;48.452;9.216;2023-02-17T14:25:31;13.80;99.90
8408;DHT22;4241;48.452;9.216;2023-02-17T14:27:58;13.90;99.90
8408;DHT22;4241;48.452;9.216;2023-02-17T14:30:32;14.00;99.90
8408;DHT22;4241;48.452;9.216;2023-02-17T14:33:06;14.00;99.90
8408;DHT22;4241;48.452;9.216;2023-02-17T14:35:33;14.00;99.90
8408;DHT22;4241;48.452;9.216;2023-02-17T14:38:15;13.90;99.90
8408;DHT22;4241;48.452;9.216;2023-02-17T14:40:44;13.90;99.90
8408;DHT22;4241;48.452;9.216;2023-02-17T14:43:11;13.70;99.90
8408;DHT22;4241;48.452;9.216;2023-02-17T14:45:39;13.70;99.90
8408;DHT22;4241;48.452;9.216;2023-02-17T14:48:06;13.80;99.90
8408;DHT22;4241;48.452;9.216;2023-02-17T14:50:33;13.60;99.90
8408;DHT22;4241;48.452;9.216;2023-02-17T14:53:10;13.60;99.90
8408;DHT22;4241;48.452;9.216;2023-02-17T14:55:45;13.60;99.90
8408;DHT22;4241;48.452;9.216;2023-02-17T14:58:17;13.50;99.90
8408;DHT22;4241;48.452;9.216;2023-02-17T15:00:46;13.60;99.90
8408;DHT22;4241;48.452;9.216;2023-02-17T15:03:13;13.50;99.90
8408;DHT22;4241;48.452;9.216;2023-02-17T15:05:40;13.60;99.90
8408;DHT22;4241;48.452;9.216;2023-02-17T15:08:09;13.60;99.90
8408;DHT22;4241;48.452;9.216;2023-02-17T15:10:36;13.50;99.90
8408;DHT22;4241;48.452;9.216;2023-02-17T15:13:05;13.60;99.90
8408;DHT22;4241;48.452;9.216;2023-02-17T15:15:32;13.60;99.90
8408;DHT22;4241;48.452;9.216;2023-02-17T15:18:00;13.60;99.90
8408;DHT22;4241;48.452;9.216;2023-02-17T15:20:27;12.60;99.90
8408;DHT22;4241;48.452;9.216;2023-02-17T15:22:55;13.40;99.90
8408;DHT22;4241;48.452;9.216;2023-02-17T15:25:23;13.40;99.90
8408;DHT22;4241;48.452;9.216;2023-02-17T15:27:50;13.50;99.90
8408;DHT22;4241;48.452;9.216;2023-02-17T15:30:18;13.40;99.90
8408;DHT22;4241;48.452;9.216;2023-02-17T15:32:45;13.30;99.90
8408;DHT22;4241;48.452;9.216;2023-02-17T15:35:18;13.30;99.90
8408;DHT22;4241;48.452;9.216;2023-02-17T15:37:45;13.30;99.90
8408;DHT22;4241;48.452;9.216;2023-02-17T15:40:13;13.30;99.90
8408;DHT22;4241;48.452;9.216;2023-02-17T15:42:41;13.40;99.90
8408;DHT22;4241;48.452;9.216;2023-02-17T15:45:11;13.40;99.90
8408;DHT22;4241;48.452;9.216;2023-02-17T15:47:39;13.30;99.90
8408;DHT22;4241;48.452;9.216;2023-02-17T15:50:12;13.30;99.90
8408;DHT22;4241;48.452;9.216;2023-02-17T15:52:43;13.40;99.90
8408;DHT22;4241;48.452;9.216;2023-02-17T15:55:10;12.70;99.90
8408;DHT22;4241;48.452;9.216;2023-02-17T15:57:39;13.40;99.90
8408;DHT22;4241;48.452;9.216;2023-02-17T16:00:16;13.30;99.90
8408;DHT22;4241;48.452;9.216;2023-02-17T16:02:44;13.20;99.90
8408;DHT22;4241;48.452;9.216;2023-02-17T16:05:11;13.30;99.90
8408;DHT22;4241;48.452;9.216;2023-02-17T16:07:38;13.20;99.90
8408;DHT22;4241;48.452;9.216;2023-02-17T16:10:08;13.10;99.90
8408;DHT22;4241;48.452;9.216;2023-02-17T16:12:35;13.10;99.90
8408;DHT22;4241;48.452;9.216;2023-02-17T16:15:03;13.20;99.90
8408;DHT22;4241;48.452;9.216;2023-02-17T16:17:30;12.90;99.90
8408;DHT22;4241;48.452;9.216;2023-02-17T16:19:57;12.80;99.90
8408;DHT22;4241;48.452;9.216;2023-02-17T16:22:23;12.90;99.90
8408;DHT22;4241;48.452;9.216;2023-02-17T16:24:50;12.80;99.90